createdAt,value
2023-03-29T00:00:08.204Z,3.72
2023-03-29T00:02:39.201Z,3.50
2023-03-29T00:05:07.500Z,4.28
2023-03-29T00:07:34.796Z,3.22
2023-03-29T00:10:04.682Z,3.38
2023-03-29T00:12:32.818Z,3.40
2023-03-29T00:15:00.131Z,3.58
2023-03-29T00:17:28.028Z,3.33
2023-03-29T00:19:55.511Z,3.15
2023-03-29T00:25:27.535Z,3.60
2023-03-29T00:27:54.944Z,3.25
2023-03-29T00:30:22.151Z,3.20
2023-03-29T00:32:49.627Z,3.00
2023-03-29T00:35:17.237Z,2.78
2023-03-29T00:37:47.200Z,3.10
2023-03-29T00:40:15.431Z,3.30
2023-03-29T00:42:46.233Z,2.78
2023-03-29T00:45:13.536Z,3.20
2023-03-29T00:47:46.786Z,2.80
2023-03-29T00:50:17.091Z,2.75
2023-03-29T00:52:48.833Z,3.28
2023-03-29T00:55:21.838Z,3.08
2023-03-29T00:57:52.176Z,2.95
2023-03-29T01:00:25.084Z,2.97
2023-03-29T01:02:59.589Z,3.05
2023-03-29T01:05:37.863Z,2.65
2023-03-29T01:08:21.765Z,2.97
2023-03-29T01:10:55.154Z,3.20
2023-03-29T01:13:28.835Z,2.90
2023-03-29T01:15:58.651Z,2.95
2023-03-29T01:18:26.056Z,2.93
2023-03-29T01:21:17.170Z,2.78
2023-03-29T01:23:47.535Z,3.00
2023-03-29T01:26:27.135Z,2.95
2023-03-29T01:29:00.130Z,2.35
2023-03-29T01:31:37.230Z,3.08
2023-03-29T01:34:10.797Z,3.35
2023-03-29T01:37:04.462Z,2.90
2023-03-29T01:39:34.198Z,2.95
2023-03-29T01:42:19.520Z,3.17
2023-03-29T01:45:03.460Z,2.80
2023-03-29T01:47:54.736Z,3.60
2023-03-29T01:50:31.405Z,3.25
2023-03-29T01:53:08.014Z,3.25
2023-03-29T01:55:39.386Z,3.42
2023-03-29T01:58:10.159Z,3.50
2023-03-29T02:03:09.217Z,3.55
2023-03-29T02:05:39.567Z,3.65
2023-03-29T02:08:10.855Z,4.00
2023-03-29T02:10:38.410Z,3.80
2023-03-29T02:13:05.855Z,4.43
2023-03-29T02:15:33.962Z,3.55
2023-03-29T02:18:04.081Z,3.65
2023-03-29T02:20:41.138Z,4.10
2023-03-29T02:23:18.125Z,4.25
2023-03-29T02:25:46.612Z,4.38
2023-03-29T02:28:14.504Z,3.72
2023-03-29T02:30:56.976Z,4.40
2023-03-29T02:33:31.338Z,4.30
2023-03-29T02:36:05.156Z,4.38
2023-03-29T02:38:33.016Z,4.25
2023-03-29T02:41:01.526Z,5.30
2023-03-29T02:43:29.572Z,4.30
2023-03-29T02:45:57.491Z,4.05
2023-03-29T02:48:26.837Z,4.60
2023-03-29T02:50:58.132Z,4.43
2023-03-29T02:53:42.365Z,4.13
2023-03-29T02:56:10.077Z,4.25
2023-03-29T02:58:37.466Z,4.15
2023-03-29T03:01:06.937Z,4.80
2023-03-29T03:03:35.842Z,4.82
2023-03-29T03:06:04.878Z,4.18
2023-03-29T03:08:32.629Z,4.10
2023-03-29T03:11:00.140Z,4.90
2023-03-29T03:13:27.509Z,4.20
2023-03-29T03:15:55.269Z,4.68
2023-03-29T03:18:23.368Z,4.35
2023-03-29T03:21:01.850Z,4.75
2023-03-29T03:23:29.588Z,4.15
2023-03-29T03:25:58.205Z,4.53
2023-03-29T03:28:27.373Z,5.25
2023-03-29T03:30:55.417Z,4.63
2023-03-29T03:33:27.071Z,5.45
2023-03-29T03:36:34.769Z,5.00
2023-03-29T03:39:05.975Z,5.35
2023-03-29T03:41:34.400Z,5.68
2023-03-29T03:44:02.055Z,4.97
2023-03-29T03:46:29.847Z,5.72
2023-03-29T03:48:58.616Z,5.03
2023-03-29T03:51:33.519Z,5.57
2023-03-29T03:54:01.175Z,6.22
2023-03-29T03:56:34.336Z,6.35
2023-03-29T04:01:43.449Z,6.43
2023-03-29T04:04:17.679Z,6.53
2023-03-29T04:07:02.769Z,6.82
2023-03-29T04:10:02.176Z,6.97
2023-03-29T04:13:02.438Z,7.10
2023-03-29T04:15:33.814Z,6.75
2023-03-29T04:18:07.698Z,7.05
2023-03-29T04:20:41.612Z,7.55
2023-03-29T04:23:09.729Z,7.82
2023-03-29T04:25:39.311Z,7.75
2023-03-29T04:28:06.631Z,7.85
2023-03-29T04:30:42.542Z,7.68
2023-03-29T04:33:32.989Z,10.70
2023-03-29T04:36:01.486Z,7.32
2023-03-29T04:38:30.731Z,8.25
2023-03-29T04:40:58.404Z,8.60
2023-03-29T04:43:46.627Z,9.18
2023-03-29T04:46:28.145Z,9.50
2023-03-29T04:49:14.454Z,8.73
2023-03-29T04:51:45.812Z,9.10
2023-03-29T04:54:13.226Z,9.35
2023-03-29T04:57:00.706Z,9.90
2023-03-29T04:59:39.790Z,10.23
2023-03-29T05:02:19.194Z,10.30
2023-03-29T05:04:49.184Z,9.82
2023-03-29T05:07:19.155Z,9.60
2023-03-29T05:09:47.576Z,9.45
2023-03-29T05:12:15.086Z,9.65
2023-03-29T05:15:00.347Z,9.77
2023-03-29T05:17:29.122Z,10.00
2023-03-29T05:20:09.188Z,9.75
2023-03-29T05:22:38.256Z,10.23
2023-03-29T05:25:08.381Z,10.02
2023-03-29T05:27:35.920Z,10.18
2023-03-29T05:30:09.046Z,10.27
2023-03-29T05:33:11.678Z,10.05
2023-03-29T05:35:40.114Z,10.35
2023-03-29T05:38:08.985Z,10.60
2023-03-29T05:40:37.195Z,10.00
2023-03-29T05:43:29.429Z,9.30
2023-03-29T05:45:57.239Z,10.27
2023-03-29T05:48:26.252Z,10.30
2023-03-29T05:50:55.553Z,9.52
2023-03-29T05:53:25.183Z,9.23
2023-03-29T05:55:52.717Z,9.57
2023-03-29T05:58:22.514Z,9.75
2023-03-29T06:00:51.384Z,9.85
2023-03-29T06:03:38.643Z,9.73
2023-03-29T06:06:06.910Z,9.05
2023-03-29T06:08:35.179Z,9.65
2023-03-29T06:11:13.514Z,10.32
2023-03-29T06:13:59.315Z,9.85
2023-03-29T06:16:26.927Z,9.77
2023-03-29T06:18:54.499Z,9.77
2023-03-29T06:21:22.962Z,9.98
2023-03-29T06:23:50.415Z,10.23
2023-03-29T06:26:19.014Z,11.15
2023-03-29T06:28:49.839Z,9.63
2023-03-29T06:31:19.953Z,9.55
2023-03-29T06:33:50.886Z,10.75
2023-03-29T06:36:47.620Z,9.95
2023-03-29T06:39:16.491Z,9.75
2023-03-29T06:42:20.538Z,10.18
2023-03-29T06:45:15.037Z,10.40
2023-03-29T06:47:46.369Z,9.02
2023-03-29T06:50:14.746Z,10.50
2023-03-29T06:53:05.312Z,9.73
2023-03-29T06:55:34.467Z,9.80
2023-03-29T06:58:15.476Z,10.68
2023-03-29T07:00:43.273Z,10.95
2023-03-29T07:03:24.703Z,10.63
2023-03-29T07:06:03.891Z,10.77
2023-03-29T07:08:35.271Z,10.05
2023-03-29T07:11:07.170Z,10.13
2023-03-29T07:13:37.291Z,9.88
2023-03-29T07:16:14.438Z,9.65
2023-03-29T07:19:05.035Z,9.35
2023-03-29T07:21:53.069Z,10.00
2023-03-29T07:24:22.609Z,9.75
2023-03-29T07:27:03.168Z,9.38
2023-03-29T07:29:33.295Z,9.93
2023-03-29T07:32:01.107Z,9.68
2023-03-29T07:34:37.525Z,9.90
2023-03-29T07:37:09.417Z,9.45
2023-03-29T07:39:38.902Z,10.75
2023-03-29T07:42:25.048Z,8.82
2023-03-29T07:44:54.214Z,9.25
2023-03-29T07:47:22.059Z,8.07
2023-03-29T07:49:50.657Z,8.13
2023-03-29T07:52:18.565Z,9.25
2023-03-29T07:54:45.826Z,8.93
2023-03-29T07:57:25.644Z,7.78
2023-03-29T07:59:55.274Z,7.90
2023-03-29T08:02:28.001Z,8.93
2023-03-29T08:04:59.505Z,9.45
2023-03-29T08:07:49.451Z,7.60
2023-03-29T08:10:21.486Z,8.13
2023-03-29T08:13:07.420Z,8.15
2023-03-29T08:15:48.593Z,7.85
2023-03-29T08:18:26.711Z,8.20
2023-03-29T08:20:54.260Z,7.82
2023-03-29T08:23:21.841Z,7.65
2023-03-29T08:26:10.673Z,9.45
2023-03-29T08:28:39.561Z,8.82
2023-03-29T08:31:10.082Z,7.10
2023-03-29T08:33:42.279Z,7.88
2023-03-29T08:36:27.680Z,7.70
2023-03-29T08:38:57.544Z,7.45
2023-03-29T08:41:50.275Z,7.43
2023-03-29T08:44:29.202Z,8.38
2023-03-29T08:47:14.026Z,7.35
2023-03-29T08:49:50.328Z,7.55
2023-03-29T08:52:31.216Z,8.15
2023-03-29T08:55:03.599Z,7.18
2023-03-29T08:57:34.848Z,7.45
2023-03-29T09:00:11.141Z,7.05
2023-03-29T09:02:41.378Z,6.90
2023-03-29T09:05:25.824Z,7.47
2023-03-29T09:08:19.197Z,7.82
2023-03-29T09:10:53.416Z,7.38
2023-03-29T09:13:30.630Z,7.32
2023-03-29T09:16:12.583Z,7.78
2023-03-29T09:19:16.396Z,7.60
2023-03-29T09:21:46.805Z,7.45
2023-03-29T09:24:52.729Z,7.47
2023-03-29T09:27:38.036Z,7.95
2023-03-29T09:30:50.775Z,7.78
2023-03-29T09:33:44.226Z,8.90
2023-03-29T09:36:34.662Z,7.68
2023-03-29T09:39:03.360Z,7.65
2023-03-29T09:41:41.250Z,7.82
2023-03-29T09:44:24.211Z,8.70
2023-03-29T09:47:07.169Z,8.50
2023-03-29T09:49:43.518Z,8.48
2023-03-29T09:52:17.112Z,9.45
2023-03-29T09:54:52.471Z,8.90
2023-03-29T09:57:22.757Z,8.50
2023-03-29T09:59:51.806Z,9.15
2023-03-29T10:02:21.257Z,8.70
2023-03-29T10:04:56.005Z,8.88
2023-03-29T10:07:23.560Z,8.48
2023-03-29T10:09:56.915Z,9.07
2023-03-29T10:12:25.356Z,9.60
2023-03-29T10:14:54.346Z,9.20
2023-03-29T10:17:24.792Z,9.52
2023-03-29T10:20:19.486Z,9.90
2023-03-29T10:22:50.058Z,9.15
2023-03-29T10:25:18.597Z,8.70
2023-03-29T10:27:47.901Z,9.63
2023-03-29T10:30:23.909Z,9.02
2023-03-29T10:33:00.056Z,8.68
2023-03-29T10:35:40.269Z,9.15
2023-03-29T10:38:13.435Z,8.88
2023-03-29T10:40:48.273Z,9.05
2023-03-29T10:43:26.399Z,9.10
2023-03-29T10:46:08.156Z,8.45
2023-03-29T10:48:36.456Z,8.82
2023-03-29T10:51:05.846Z,8.82
2023-03-29T10:53:36.493Z,9.82
2023-03-29T10:56:07.809Z,8.35
2023-03-29T10:58:53.339Z,8.73
2023-03-29T11:01:54.913Z,9.02
2023-03-29T11:04:28.472Z,9.25
2023-03-29T11:07:22.697Z,9.23
2023-03-29T11:10:19.239Z,8.60
2023-03-29T11:12:55.401Z,8.52
2023-03-29T11:15:45.266Z,9.23
2023-03-29T11:18:27.435Z,9.37
2023-03-29T11:21:23.521Z,8.70
2023-03-29T11:24:15.812Z,9.10
2023-03-29T11:27:02.714Z,9.45
2023-03-29T11:30:02.327Z,9.32
2023-03-29T11:32:53.101Z,8.55
2023-03-29T11:35:34.544Z,8.63
2023-03-29T11:38:05.469Z,9.52
2023-03-29T11:41:03.549Z,8.57
2023-03-29T11:43:37.787Z,9.35
2023-03-29T11:46:20.593Z,9.35
2023-03-29T11:49:01.637Z,8.63
2023-03-29T11:51:32.237Z,8.40
2023-03-29T11:54:16.341Z,8.98
2023-03-29T11:57:02.192Z,8.88
2023-03-29T12:00:05.417Z,8.38
2023-03-29T12:02:53.531Z,9.02
2023-03-29T12:05:32.890Z,9.27
2023-03-29T12:08:03.829Z,8.77
2023-03-29T12:10:36.231Z,8.32
2023-03-29T12:13:15.394Z,8.80
2023-03-29T12:15:52.768Z,9.55
2023-03-29T12:18:29.386Z,9.10
2023-03-29T12:21:03.828Z,9.02
2023-03-29T12:23:34.108Z,8.77
2023-03-29T12:26:19.596Z,9.07
2023-03-29T12:29:08.666Z,8.88
2023-03-29T12:31:35.886Z,9.23
2023-03-29T12:34:14.961Z,8.80
2023-03-29T12:37:38.178Z,8.90
2023-03-29T12:40:41.850Z,8.55
2023-03-29T12:43:37.812Z,8.88
2023-03-29T12:46:26.737Z,9.73
2023-03-29T12:49:09.641Z,9.15
2023-03-29T12:51:41.241Z,8.20
2023-03-29T12:54:16.893Z,8.63
2023-03-29T12:56:58.576Z,8.73
2023-03-29T12:59:39.927Z,8.25
2023-03-29T13:02:14.104Z,9.25
2023-03-29T13:04:51.012Z,7.75
2023-03-29T13:07:26.461Z,8.98
2023-03-29T13:09:56.572Z,8.32
2023-03-29T13:12:32.923Z,8.60
2023-03-29T13:15:35.972Z,7.35
2023-03-29T13:18:21.071Z,7.53
2023-03-29T13:21:03.553Z,7.72
2023-03-29T13:23:56.893Z,8.50
2023-03-29T13:26:45.772Z,6.93
2023-03-29T13:29:32.174Z,7.10
2023-03-29T13:32:13.353Z,6.75
2023-03-29T13:34:44.004Z,7.15
2023-03-29T13:37:30.183Z,6.60
2023-03-29T13:39:58.800Z,7.43
2023-03-29T13:42:35.592Z,7.05
2023-03-29T13:45:29.406Z,7.03
2023-03-29T13:48:05.825Z,6.78
2023-03-29T13:50:39.807Z,7.40
2023-03-29T13:53:15.729Z,6.97
2023-03-29T13:55:51.131Z,6.68
2023-03-29T13:58:41.919Z,7.32
2023-03-29T14:03:45.586Z,6.85
2023-03-29T14:06:17.234Z,6.38
2023-03-29T14:08:45.408Z,6.82
2023-03-29T14:11:25.437Z,6.53
2023-03-29T14:13:57.906Z,6.22
2023-03-29T14:16:32.385Z,9.20
2023-03-29T14:19:03.388Z,5.55
2023-03-29T14:21:31.363Z,5.07
2023-03-29T14:24:01.891Z,5.72
2023-03-29T14:26:34.618Z,5.78
2023-03-29T14:29:03.015Z,6.15
2023-03-29T14:31:33.457Z,5.00
2023-03-29T14:34:02.835Z,5.03
2023-03-29T14:36:33.280Z,5.60
2023-03-29T14:41:57.141Z,5.55
2023-03-29T14:44:32.012Z,5.75
2023-03-29T14:47:01.554Z,5.43
2023-03-29T14:49:29.888Z,5.40
2023-03-29T14:51:57.703Z,5.40
2023-03-29T14:54:33.706Z,4.93
2023-03-29T14:57:06.744Z,5.60
2023-03-29T14:59:44.550Z,5.55
2023-03-29T15:02:32.336Z,5.65
2023-03-29T15:05:23.200Z,5.05
2023-03-29T15:07:56.279Z,5.32
2023-03-29T15:10:24.022Z,5.65
2023-03-29T15:12:51.632Z,5.75
2023-03-29T15:15:19.378Z,5.65
2023-03-29T15:17:51.041Z,5.03
2023-03-29T15:20:27.069Z,5.55
2023-03-29T15:23:04.610Z,4.45
2023-03-29T15:25:47.703Z,5.28
2023-03-29T15:28:33.747Z,5.45
2023-03-29T15:31:12.365Z,5.40
2023-03-29T15:33:41.701Z,5.40
2023-03-29T15:36:12.325Z,4.97
2023-03-29T15:38:44.775Z,5.10
2023-03-29T15:41:16.127Z,7.13
2023-03-29T15:46:12.397Z,6.13
2023-03-29T15:48:40.512Z,5.85
2023-03-29T15:51:11.687Z,6.35
2023-03-29T15:53:39.220Z,6.13
2023-03-29T15:56:10.172Z,6.50
2023-03-29T15:58:38.188Z,6.50
2023-03-29T16:01:36.633Z,6.38
2023-03-29T16:04:05.442Z,6.80
2023-03-29T16:06:33.977Z,5.93
2023-03-29T16:09:01.358Z,6.47
2023-03-29T16:11:28.874Z,5.90
2023-03-29T16:13:57.081Z,6.55
2023-03-29T16:16:24.941Z,7.30
2023-03-29T16:18:52.555Z,6.40
2023-03-29T16:21:22.359Z,6.50
2023-03-29T16:23:50.026Z,7.15
2023-03-29T16:26:17.245Z,7.20
2023-03-29T16:28:44.489Z,6.70
2023-03-29T16:31:13.574Z,7.07
2023-03-29T16:33:41.613Z,7.03
2023-03-29T16:36:09.901Z,7.72
2023-03-29T16:38:37.151Z,7.00
2023-03-29T16:41:04.703Z,7.85
2023-03-29T16:43:32.455Z,7.28
2023-03-29T16:45:59.989Z,7.47
2023-03-29T16:48:27.396Z,7.53
2023-03-29T16:50:54.672Z,10.38
2023-03-29T16:53:23.214Z,9.10
2023-03-29T16:55:50.709Z,7.85
2023-03-29T16:58:18.086Z,8.77
2023-03-29T17:00:48.179Z,9.07
2023-03-29T17:03:17.002Z,8.40
2023-03-29T17:05:48.660Z,8.18
2023-03-29T17:08:17.629Z,9.00
2023-03-29T17:10:45.231Z,9.80
2023-03-29T17:13:13.164Z,9.05
2023-03-29T17:15:41.156Z,10.10
2023-03-29T17:18:08.985Z,10.25
2023-03-29T17:20:38.916Z,9.10
2023-03-29T17:23:06.463Z,9.07
2023-03-29T17:25:33.672Z,9.98
2023-03-29T17:28:00.989Z,9.27
2023-03-29T17:30:28.164Z,9.15
2023-03-29T17:32:55.714Z,9.52
2023-03-29T17:35:22.981Z,10.02
2023-03-29T17:37:50.501Z,9.52
2023-03-29T17:40:18.652Z,9.85
2023-03-29T17:42:47.914Z,9.27
2023-03-29T17:45:15.795Z,8.77
2023-03-29T17:47:43.012Z,11.13
2023-03-29T17:50:12.816Z,10.35
2023-03-29T17:52:40.426Z,9.83
2023-03-29T17:55:13.814Z,9.32
2023-03-29T17:57:42.128Z,10.48
2023-03-29T18:00:14.265Z,10.63
2023-03-29T18:02:41.892Z,11.73
2023-03-29T18:05:10.404Z,10.60
2023-03-29T18:07:38.045Z,11.02
2023-03-29T18:10:06.539Z,10.85
2023-03-29T18:12:33.859Z,11.52
2023-03-29T18:15:01.444Z,10.90
2023-03-29T18:17:28.880Z,10.65
2023-03-29T18:19:56.238Z,11.38
2023-03-29T18:22:24.197Z,13.02
2023-03-29T18:24:53.935Z,11.57
2023-03-29T18:27:21.991Z,12.30
2023-03-29T18:29:49.262Z,12.70
2023-03-29T18:32:16.940Z,13.50
2023-03-29T18:34:45.439Z,14.23
2023-03-29T18:37:15.318Z,15.20
2023-03-29T18:39:43.073Z,15.20
2023-03-29T18:42:12.175Z,15.27
2023-03-29T18:44:40.672Z,15.90
2023-03-29T18:47:08.513Z,17.10
2023-03-29T18:49:36.749Z,14.40
2023-03-29T18:52:05.808Z,16.10
2023-03-29T18:54:33.236Z,15.77
2023-03-29T18:57:00.660Z,16.90
2023-03-29T18:59:27.985Z,15.15
2023-03-29T19:01:56.338Z,15.88
2023-03-29T19:04:25.786Z,15.73
2023-03-29T19:06:56.518Z,16.40
2023-03-29T19:09:23.735Z,15.32
2023-03-29T19:11:51.063Z,17.63
2023-03-29T19:14:25.228Z,15.88
2023-03-29T19:16:53.435Z,17.73
2023-03-29T19:19:22.627Z,15.93
2023-03-29T19:21:50.094Z,18.15
2023-03-29T19:24:19.494Z,18.13
2023-03-29T19:26:47.977Z,17.95
2023-03-29T19:29:15.563Z,18.45
2023-03-29T19:31:43.105Z,17.92
2023-03-29T19:34:11.123Z,19.92
2023-03-29T19:36:39.341Z,17.77
2023-03-29T19:39:10.319Z,19.67
2023-03-29T19:41:38.574Z,19.05
2023-03-29T19:44:07.590Z,20.45
2023-03-29T19:46:35.066Z,18.77
2023-03-29T19:49:05.864Z,18.73
2023-03-29T19:51:33.239Z,18.92
2023-03-29T19:54:00.781Z,18.70
2023-03-29T19:56:28.191Z,21.08
2023-03-29T19:58:55.747Z,20.55
2023-03-29T20:01:27.101Z,20.60
2023-03-29T20:03:54.548Z,20.88
2023-03-29T20:06:21.951Z,20.95
2023-03-29T20:08:49.594Z,20.80
2023-03-29T20:11:19.808Z,19.17
2023-03-29T20:13:47.174Z,19.23
2023-03-29T20:16:16.512Z,20.17
2023-03-29T20:18:45.242Z,20.00
2023-03-29T20:21:17.035Z,21.13
2023-03-29T20:23:44.852Z,18.98
2023-03-29T20:26:12.205Z,19.90
2023-03-29T20:28:39.653Z,18.13
2023-03-29T20:31:10.868Z,19.63
2023-03-29T20:33:39.053Z,19.20
2023-03-29T20:36:08.753Z,19.02
2023-03-29T20:38:37.502Z,18.23
2023-03-29T20:41:06.097Z,18.05
2023-03-29T20:43:41.189Z,18.83
2023-03-29T20:46:14.846Z,19.08
2023-03-29T20:48:54.403Z,19.42
2023-03-29T20:51:30.577Z,18.77
2023-03-29T20:54:02.313Z,18.13
2023-03-29T20:56:33.957Z,19.35
2023-03-29T20:59:01.361Z,18.90
2023-03-29T21:01:30.089Z,18.77
2023-03-29T21:03:57.756Z,19.50
2023-03-29T21:06:24.965Z,19.90
2023-03-29T21:08:52.602Z,17.85
2023-03-29T21:11:21.253Z,20.25
2023-03-29T21:13:48.460Z,19.73
2023-03-29T21:16:15.752Z,20.23
2023-03-29T21:18:43.879Z,20.85
2023-03-29T21:21:12.139Z,19.42
2023-03-29T21:23:39.522Z,21.05
2023-03-29T21:26:07.858Z,20.17
2023-03-29T21:28:37.653Z,19.23
2023-03-29T21:31:06.227Z,20.02
2023-03-29T21:33:34.494Z,21.00
2023-03-29T21:36:02.416Z,20.83
2023-03-29T21:38:29.787Z,21.13
2023-03-29T21:40:58.261Z,22.95
2023-03-29T21:43:25.482Z,21.52
2023-03-29T21:45:52.881Z,24.20
2023-03-29T21:48:20.121Z,24.52
2023-03-29T21:50:51.117Z,22.35
2023-03-29T21:53:19.164Z,23.25
2023-03-29T21:55:49.084Z,25.63
2023-03-29T21:58:16.787Z,22.98
2023-03-29T22:00:46.063Z,24.92
2023-03-29T22:03:14.575Z,26.20
2023-03-29T22:05:42.424Z,24.73
2023-03-29T22:08:10.680Z,24.95
2023-03-29T22:10:41.536Z,25.98
2023-03-29T22:13:09.296Z,27.63
2023-03-29T22:15:36.630Z,27.23
2023-03-29T22:18:04.269Z,26.25
2023-03-29T22:20:35.722Z,27.10
2023-03-29T22:23:03.483Z,29.95
2023-03-29T22:25:31.083Z,27.83
2023-03-29T22:27:58.893Z,29.35
2023-03-29T22:30:26.189Z,27.35
2023-03-29T22:32:53.567Z,28.80
2023-03-29T22:35:21.376Z,28.20
2023-03-29T22:37:48.633Z,29.45
2023-03-29T22:40:16.606Z,29.73
2023-03-29T22:42:44.032Z,26.85
2023-03-29T22:45:11.568Z,28.35
2023-03-29T22:47:38.879Z,28.92
2023-03-29T22:50:07.246Z,28.38
2023-03-29T22:52:34.449Z,28.65
2023-03-29T22:55:01.754Z,29.55
2023-03-29T22:57:29.115Z,29.85
2023-03-29T22:59:56.537Z,30.35
2023-03-29T23:02:24.050Z,29.92
2023-03-29T23:04:51.410Z,30.00
2023-03-29T23:07:18.854Z,30.45
2023-03-29T23:09:46.272Z,29.65
2023-03-29T23:12:13.510Z,28.58
2023-03-29T23:14:42.882Z,30.05
2023-03-29T23:17:10.385Z,29.90
2023-03-29T23:19:38.098Z,30.15
2023-03-29T23:22:05.434Z,28.73
2023-03-29T23:24:32.671Z,29.77
2023-03-29T23:27:01.186Z,29.70
2023-03-29T23:29:28.755Z,28.83
2023-03-29T23:31:56.894Z,30.33
2023-03-29T23:34:24.358Z,28.25
2023-03-29T23:36:51.714Z,30.70
2023-03-29T23:39:19.231Z,29.80
2023-03-29T23:41:46.522Z,28.92
2023-03-29T23:44:13.811Z,26.90
2023-03-29T23:46:41.978Z,27.67
2023-03-29T23:49:10.614Z,27.00
2023-03-29T23:51:39.074Z,28.73
2023-03-29T23:54:06.681Z,28.15
2023-03-29T23:56:34.463Z,27.98
2023-03-29T23:59:01.795Z,26.80
